createdAt,value
2018-02-12T00:00:40.505Z,41.53
2018-02-12T00:02:33.284Z,41.53
2018-02-12T00:03:33.230Z,41.53
2018-02-12T00:05:26.040Z,41.63
2018-02-12T00:06:25.955Z,41.63
2018-02-12T00:08:18.736Z,41.63
2018-02-12T00:09:18.684Z,42.02
2018-02-12T00:11:11.496Z,41.63
2018-02-12T00:12:11.411Z,41.63
2018-02-12T00:14:04.192Z,41.82
2018-02-12T00:15:04.138Z,41.82
2018-02-12T00:16:56.949Z,42.02
2018-02-12T00:17:56.864Z,41.92
2018-02-12T00:19:49.643Z,41.92
2018-02-12T00:20:49.589Z,42.02
2018-02-12T00:22:42.403Z,42.21
2018-02-12T00:23:42.315Z,41.89
2018-02-12T00:25:35.095Z,42.21
2018-02-12T00:26:35.041Z,42.19
2018-02-12T00:28:27.851Z,42.19
2018-02-12T00:29:27.765Z,42.09
2018-02-12T00:31:20.552Z,42.57
2018-02-12T00:32:20.500Z,42.47
2018-02-12T00:34:13.314Z,42.28
2018-02-12T00:35:13.228Z,42.28
2018-02-12T00:37:06.005Z,42.28
2018-02-12T00:38:05.951Z,42.28
2018-02-12T00:39:58.761Z,42.67
2018-02-12T00:40:58.676Z,42.67
2018-02-12T00:42:51.456Z,42.47
2018-02-12T00:43:51.402Z,42.57
2018-02-12T00:45:44.212Z,42.76
2018-02-12T00:46:44.125Z,42.67
2018-02-12T00:48:36.909Z,42.86
2018-02-12T00:49:36.852Z,42.67
2018-02-12T00:51:29.661Z,43.03
2018-02-12T00:52:29.576Z,43.03
2018-02-12T00:54:22.352Z,42.84
2018-02-12T00:55:22.299Z,43.03
2018-02-12T00:57:15.109Z,42.93
2018-02-12T00:58:15.022Z,42.84
2018-02-12T01:00:07.801Z,42.57
2018-02-12T01:01:07.748Z,42.55
2018-02-12T01:03:00.552Z,42.16
2018-02-12T01:04:00.470Z,42.46
2018-02-12T01:05:53.244Z,42.74
2018-02-12T01:06:53.191Z,42.65
2018-02-12T01:08:46.002Z,42.93
2018-02-12T01:09:45.918Z,43.13
2018-02-12T01:11:38.696Z,43.03
2018-02-12T01:12:38.642Z,42.84
2018-02-12T01:14:31.449Z,42.74
2018-02-12T01:15:31.365Z,42.74
2018-02-12T01:17:24.142Z,43.03
2018-02-12T01:18:24.088Z,42.93
2018-02-12T01:20:16.895Z,43.03
2018-02-12T01:21:16.811Z,43.13
2018-02-12T01:23:09.588Z,42.84
2018-02-12T01:24:09.533Z,43.03
2018-02-12T01:26:02.341Z,43.13
2018-02-12T01:27:02.258Z,42.91
2018-02-12T01:28:55.034Z,43.23
2018-02-12T01:29:54.980Z,42.74
2018-02-12T01:31:47.790Z,43.03
2018-02-12T01:32:47.709Z,42.82
2018-02-12T01:34:40.485Z,43.20
2018-02-12T01:35:40.429Z,43.20
2018-02-12T01:37:33.235Z,43.30
2018-02-12T01:38:33.151Z,43.49
2018-02-12T01:40:25.926Z,43.30
2018-02-12T01:41:25.872Z,43.20
2018-02-12T01:43:18.677Z,43.30
2018-02-12T01:44:18.594Z,43.30
2018-02-12T01:46:11.371Z,43.30
2018-02-12T01:47:11.317Z,43.30
2018-02-12T01:49:04.122Z,43.20
2018-02-12T01:50:04.039Z,43.68
2018-02-12T01:51:56.818Z,43.68
2018-02-12T01:52:56.764Z,43.49
2018-02-12T01:54:49.575Z,43.78
2018-02-12T01:55:49.485Z,43.97
2018-02-12T01:57:42.266Z,43.68
2018-02-12T01:58:42.209Z,43.59
2018-02-12T02:00:35.016Z,43.78
2018-02-12T02:01:34.930Z,43.78
2018-02-12T02:03:27.707Z,43.59
2018-02-12T02:04:27.652Z,43.68
2018-02-12T02:06:20.459Z,43.88
2018-02-12T02:07:20.372Z,43.68
2018-02-12T02:09:13.152Z,43.68
2018-02-12T02:10:13.097Z,43.78
2018-02-12T02:12:05.903Z,43.68
2018-02-12T02:13:05.817Z,43.78
2018-02-12T02:14:58.595Z,43.68
2018-02-12T02:15:58.539Z,43.66
2018-02-12T02:17:51.346Z,43.78
2018-02-12T02:18:51.260Z,43.88
2018-02-12T02:20:44.038Z,43.78
2018-02-12T02:21:43.984Z,43.66
2018-02-12T02:23:36.793Z,43.88
2018-02-12T02:24:36.704Z,43.68
2018-02-12T02:26:29.484Z,43.76
2018-02-12T02:27:29.429Z,43.76
2018-02-12T02:29:22.238Z,43.78
2018-02-12T02:30:22.153Z,43.66
2018-02-12T02:32:14.930Z,43.76
2018-02-12T02:33:14.873Z,43.76
2018-02-12T02:35:07.679Z,43.95
2018-02-12T02:36:07.594Z,43.76
2018-02-12T02:38:00.369Z,43.76
2018-02-12T02:39:00.315Z,43.66
2018-02-12T02:40:53.119Z,43.76
2018-02-12T02:41:53.088Z,43.66
2018-02-12T02:43:45.809Z,43.57
2018-02-12T02:44:45.754Z,43.57
2018-02-12T02:46:38.562Z,43.76
2018-02-12T02:47:38.476Z,43.66
2018-02-12T02:49:31.256Z,43.76
2018-02-12T02:50:31.202Z,43.66
2018-02-12T02:52:24.009Z,43.76
2018-02-12T02:53:23.923Z,43.76
2018-02-12T02:55:16.700Z,43.76
2018-02-12T02:56:16.643Z,43.66
2018-02-12T02:58:09.455Z,43.76
2018-02-12T02:59:09.371Z,43.66
2018-02-12T03:01:02.158Z,43.76
2018-02-12T03:02:02.095Z,43.66
2018-02-12T03:03:54.900Z,43.85
2018-02-12T03:04:54.815Z,43.76
2018-02-12T03:06:47.589Z,43.66
2018-02-12T03:07:47.535Z,43.76
2018-02-12T03:09:40.342Z,43.95
2018-02-12T03:10:40.263Z,43.95
2018-02-12T03:12:33.034Z,43.76
2018-02-12T03:13:32.978Z,43.76
2018-02-12T03:15:25.786Z,43.76
2018-02-12T03:16:25.700Z,43.76
2018-02-12T03:18:18.475Z,43.57
2018-02-12T03:19:18.421Z,43.66
2018-02-12T03:21:11.228Z,43.66
2018-02-12T03:22:11.141Z,43.57
2018-02-12T03:24:03.916Z,43.66
2018-02-12T03:25:03.860Z,43.66
2018-02-12T03:26:56.667Z,43.66
2018-02-12T03:27:56.583Z,43.76
2018-02-12T03:29:49.364Z,43.57
2018-02-12T03:30:49.310Z,43.66
2018-02-12T03:32:42.113Z,44.24
2018-02-12T03:33:42.030Z,43.66
2018-02-12T03:35:34.810Z,43.85
2018-02-12T03:36:34.753Z,43.66
2018-02-12T03:38:27.558Z,43.85
2018-02-12T03:39:27.473Z,43.66
2018-02-12T03:41:20.250Z,43.76
2018-02-12T03:42:20.195Z,43.76
2018-02-12T03:44:13.000Z,43.64
2018-02-12T03:45:12.913Z,43.93
2018-02-12T03:47:05.689Z,43.66
2018-02-12T03:48:05.634Z,43.95
2018-02-12T03:49:58.444Z,43.76
2018-02-12T03:50:58.360Z,43.74
2018-02-12T03:52:51.138Z,43.76
2018-02-12T03:53:51.085Z,43.84
2018-02-12T03:55:43.892Z,43.76
2018-02-12T03:56:43.804Z,43.84
2018-02-12T03:58:36.581Z,43.64
2018-02-12T03:59:36.534Z,43.64
2018-02-12T04:01:29.336Z,43.74
2018-02-12T04:02:29.249Z,43.74
2018-02-12T04:04:22.024Z,43.64
2018-02-12T04:05:21.969Z,43.74
2018-02-12T04:07:14.776Z,43.54
2018-02-12T04:08:14.690Z,43.64
2018-02-12T04:10:07.464Z,43.74
2018-02-12T04:11:07.409Z,43.74
2018-02-12T04:13:00.213Z,43.74
2018-02-12T04:14:00.128Z,43.74
2018-02-12T04:15:52.903Z,43.84
2018-02-12T04:16:52.848Z,43.84
2018-02-12T04:18:45.652Z,43.93
2018-02-12T04:19:45.566Z,43.74
2018-02-12T04:21:38.343Z,43.74
2018-02-12T04:22:38.286Z,43.74
2018-02-12T04:24:31.092Z,43.26
2018-02-12T04:25:31.006Z,43.84
2018-02-12T04:27:23.781Z,43.64
2018-02-12T04:28:23.725Z,43.84
2018-02-12T04:30:16.531Z,43.93
2018-02-12T04:31:16.445Z,43.64
2018-02-12T04:33:09.220Z,43.64
2018-02-12T04:34:09.166Z,43.64
2018-02-12T04:36:01.970Z,43.93
2018-02-12T04:37:01.884Z,43.64
2018-02-12T04:38:54.656Z,43.64
2018-02-12T04:39:54.602Z,43.64
2018-02-12T04:41:47.407Z,43.64
2018-02-12T04:42:47.322Z,43.64
2018-02-12T04:44:40.100Z,43.84
2018-02-12T04:45:40.043Z,43.64
2018-02-12T04:47:32.848Z,43.84
2018-02-12T04:48:32.763Z,43.45
2018-02-12T04:50:25.538Z,43.45
2018-02-12T04:51:25.483Z,43.74
2018-02-12T04:53:18.289Z,43.45
2018-02-12T04:54:18.203Z,43.74
2018-02-12T04:56:10.979Z,43.16
2018-02-12T04:57:10.923Z,43.84
2018-02-12T04:59:03.730Z,43.54
2018-02-12T05:00:03.643Z,43.64
2018-02-12T05:01:56.420Z,43.35
2018-02-12T05:02:56.364Z,43.45
2018-02-12T05:04:49.170Z,43.64
2018-02-12T05:05:49.084Z,43.93
2018-02-12T05:07:41.858Z,43.64
2018-02-12T05:08:41.803Z,43.74
2018-02-12T05:10:34.609Z,43.26
2018-02-12T05:11:34.523Z,43.54
2018-02-12T05:13:27.300Z,43.74
2018-02-12T05:14:27.245Z,43.64
2018-02-12T05:16:20.053Z,43.54
2018-02-12T05:17:19.964Z,43.64
2018-02-12T05:19:12.737Z,43.64
2018-02-12T05:20:12.682Z,43.54
2018-02-12T05:22:05.492Z,43.54
2018-02-12T05:23:05.400Z,43.64
2018-02-12T05:24:58.173Z,43.54
2018-02-12T05:25:58.118Z,43.54
2018-02-12T05:27:50.924Z,43.43
2018-02-12T05:28:50.841Z,43.74
2018-02-12T05:30:43.613Z,43.64
2018-02-12T05:31:43.558Z,43.62
2018-02-12T05:33:36.363Z,43.45
2018-02-12T05:34:36.277Z,43.35
2018-02-12T05:36:29.052Z,43.45
2018-02-12T05:37:28.999Z,43.16
2018-02-12T05:39:21.806Z,43.35
2018-02-12T05:40:21.718Z,43.26
2018-02-12T05:42:14.494Z,43.14
2018-02-12T05:43:14.438Z,43.26
2018-02-12T05:45:07.244Z,43.26
2018-02-12T05:46:07.158Z,43.23
2018-02-12T05:47:59.934Z,43.52
2018-02-12T05:48:59.879Z,43.33
2018-02-12T05:50:52.684Z,43.07
2018-02-12T05:51:52.596Z,43.52
2018-02-12T05:53:45.371Z,43.23
2018-02-12T05:54:45.315Z,43.33
2018-02-12T05:56:38.125Z,43.26
2018-02-12T05:57:38.034Z,43.16
2018-02-12T05:59:30.809Z,43.23
2018-02-12T06:00:30.757Z,43.23
2018-02-12T06:02:23.557Z,43.54
2018-02-12T06:03:23.472Z,43.62
2018-02-12T06:05:16.249Z,43.43
2018-02-12T06:06:16.192Z,43.62
2018-02-12T06:08:08.995Z,43.23
2018-02-12T06:09:08.910Z,43.23
2018-02-12T06:11:01.723Z,43.23
2018-02-12T06:12:01.629Z,43.23
2018-02-12T06:13:54.433Z,43.43
2018-02-12T06:14:54.348Z,43.52
2018-02-12T06:16:47.124Z,43.33
2018-02-12T06:17:47.066Z,43.43
2018-02-12T06:19:39.872Z,43.14
2018-02-12T06:20:39.788Z,43.14
2018-02-12T06:22:32.561Z,43.14
2018-02-12T06:23:32.504Z,43.33
2018-02-12T06:25:25.310Z,43.33
2018-02-12T06:26:25.225Z,43.33
2018-02-12T06:28:17.998Z,43.43
2018-02-12T06:29:17.942Z,43.43
2018-02-12T06:31:10.751Z,43.33
2018-02-12T06:32:10.665Z,43.33
2018-02-12T06:34:03.438Z,43.23
2018-02-12T06:35:03.416Z,43.33
2018-02-12T06:36:56.188Z,43.23
2018-02-12T06:37:56.101Z,43.33
2018-02-12T06:39:48.878Z,43.23
2018-02-12T06:40:48.823Z,43.23
2018-02-12T06:42:41.629Z,43.23
2018-02-12T06:43:41.541Z,43.62
2018-02-12T06:45:34.315Z,43.43
2018-02-12T06:46:34.258Z,43.33
2018-02-12T06:48:27.065Z,43.14
2018-02-12T06:49:26.978Z,43.23
2018-02-12T06:51:19.754Z,43.23
2018-02-12T06:52:19.699Z,43.33
2018-02-12T06:54:12.511Z,43.04
2018-02-12T06:55:12.422Z,43.04
2018-02-12T06:57:05.199Z,43.43
2018-02-12T06:58:05.145Z,43.43
2018-02-12T06:59:57.947Z,43.04
2018-02-12T07:00:57.861Z,43.33
2018-02-12T07:02:50.638Z,43.14
2018-02-12T07:03:50.583Z,43.14
2018-02-12T07:05:43.388Z,43.52
2018-02-12T07:06:43.309Z,42.94
2018-02-12T07:08:36.075Z,43.14
2018-02-12T07:09:36.020Z,43.04
2018-02-12T07:11:28.826Z,43.14
2018-02-12T07:12:28.745Z,43.23
2018-02-12T07:14:21.515Z,43.14
2018-02-12T07:15:21.460Z,43.14
2018-02-12T07:17:14.263Z,43.23
2018-02-12T07:18:14.177Z,43.14
2018-02-12T07:20:06.953Z,42.66
2018-02-12T07:21:06.895Z,43.04
2018-02-12T07:22:59.701Z,43.04
2018-02-12T07:23:59.615Z,42.94
2018-02-12T07:25:52.388Z,43.04
2018-02-12T07:26:52.332Z,42.85
2018-02-12T07:28:45.139Z,42.85
2018-02-12T07:29:45.054Z,42.76
2018-02-12T07:31:37.830Z,42.94
2018-02-12T07:32:37.775Z,43.14
2018-02-12T07:34:30.580Z,42.85
2018-02-12T07:35:30.492Z,43.04
2018-02-12T07:37:23.266Z,42.76
2018-02-12T07:38:23.214Z,42.76
2018-02-12T07:40:16.030Z,42.85
2018-02-12T07:41:15.929Z,42.56
2018-02-12T07:43:08.702Z,42.66
2018-02-12T07:44:08.647Z,42.66
2018-02-12T07:46:01.453Z,42.56
2018-02-12T07:47:01.368Z,42.76
2018-02-12T07:48:54.142Z,42.85
2018-02-12T07:49:54.087Z,42.66
2018-02-12T07:51:46.893Z,42.37
2018-02-12T07:52:46.814Z,42.56
2018-02-12T07:54:39.584Z,42.66
2018-02-12T07:55:39.531Z,42.56
2018-02-12T07:57:32.332Z,42.08
2018-02-12T07:58:32.248Z,42.37
2018-02-12T08:00:25.022Z,42.27
2018-02-12T08:01:24.966Z,42.08
2018-02-12T08:03:17.768Z,42.47
2018-02-12T08:04:17.683Z,42.56
2018-02-12T08:06:10.498Z,42.56
2018-02-12T08:07:10.399Z,42.94
2018-02-12T08:09:03.202Z,42.94
2018-02-12T08:10:03.117Z,42.66
2018-02-12T08:11:55.891Z,43.23
2018-02-12T08:12:55.835Z,43.23
2018-02-12T08:14:48.655Z,42.76
2018-02-12T08:15:48.552Z,43.23
2018-02-12T08:17:41.329Z,42.94
2018-02-12T08:18:41.272Z,42.56
2018-02-12T08:20:34.077Z,43.04
2018-02-12T08:21:33.989Z,42.85
2018-02-12T08:23:26.763Z,43.04
2018-02-12T08:24:26.714Z,42.76
2018-02-12T08:26:19.513Z,42.76
2018-02-12T08:27:19.427Z,42.66
2018-02-12T08:29:12.200Z,42.85
2018-02-12T08:30:12.146Z,43.04
2018-02-12T08:32:04.953Z,42.94
2018-02-12T08:33:04.867Z,42.66
2018-02-12T08:34:57.643Z,42.56
2018-02-12T08:35:57.586Z,42.66
2018-02-12T08:37:50.395Z,42.66
2018-02-12T08:38:50.309Z,43.04
2018-02-12T08:40:43.084Z,42.85
2018-02-12T08:41:43.028Z,42.76
2018-02-12T08:43:35.836Z,42.85
2018-02-12T08:44:35.750Z,42.76
2018-02-12T08:46:28.523Z,42.64
2018-02-12T08:47:28.469Z,42.85
2018-02-12T08:49:21.290Z,42.85
2018-02-12T08:50:21.186Z,42.93
2018-02-12T08:52:13.971Z,42.94
2018-02-12T08:53:13.904Z,42.56
2018-02-12T08:55:06.711Z,42.73
2018-02-12T08:56:06.624Z,42.37
2018-02-12T08:57:59.398Z,42.27
2018-02-12T08:58:59.340Z,42.18
2018-02-12T09:00:52.145Z,42.37
2018-02-12T09:01:52.061Z,42.37
2018-02-12T09:03:44.836Z,42.44
2018-02-12T09:04:44.777Z,42.56
2018-02-12T09:06:37.580Z,42.27
2018-02-12T09:07:37.494Z,42.44
2018-02-12T09:09:30.270Z,42.25
2018-02-12T09:10:30.213Z,42.64
2018-02-12T09:12:23.035Z,42.35
2018-02-12T09:13:22.932Z,42.44
2018-02-12T09:15:15.741Z,42.64
2018-02-12T09:16:15.652Z,42.35
2018-02-12T09:18:08.485Z,42.18
2018-02-12T09:19:08.372Z,41.99
2018-02-12T09:21:01.149Z,41.14
2018-02-12T09:22:01.094Z,40.30
2018-02-12T09:23:53.900Z,38.22
2018-02-12T09:24:53.811Z,37.66
2018-02-12T09:26:46.588Z,38.39
2018-02-12T09:27:46.533Z,38.59
2018-02-12T09:29:39.342Z,40.28
2018-02-12T09:30:39.253Z,40.47
2018-02-12T09:32:32.028Z,40.95
2018-02-12T09:33:31.971Z,41.14
2018-02-12T09:35:24.779Z,41.33
2018-02-12T09:36:24.734Z,40.83
2018-02-12T09:38:17.467Z,41.41
2018-02-12T09:39:17.413Z,41.31
2018-02-12T09:41:10.218Z,41.50
2018-02-12T09:42:10.134Z,41.41
2018-02-12T09:44:02.911Z,41.22
2018-02-12T09:45:02.856Z,41.31
2018-02-12T09:46:55.675Z,41.22
2018-02-12T09:47:55.573Z,41.41
2018-02-12T09:49:48.347Z,41.41
2018-02-12T09:50:48.291Z,41.31
2018-02-12T09:52:41.097Z,41.60
2018-02-12T09:53:41.010Z,41.70
2018-02-12T09:55:33.787Z,41.87
2018-02-12T09:56:33.729Z,41.58
2018-02-12T09:58:26.535Z,41.87
2018-02-12T09:59:26.449Z,41.77
2018-02-12T10:01:19.224Z,41.89
2018-02-12T10:02:19.169Z,41.60
2018-02-12T10:04:11.989Z,40.28
2018-02-12T10:05:11.889Z,39.72
2018-02-12T10:07:04.662Z,39.33
2018-02-12T10:08:04.606Z,39.22
2018-02-12T10:09:57.414Z,40.47
2018-02-12T10:10:57.329Z,40.47
2018-02-12T10:12:50.106Z,40.83
2018-02-12T10:13:50.049Z,41.22
2018-02-12T10:15:42.853Z,41.02
2018-02-12T10:16:42.767Z,40.93
2018-02-12T10:18:35.548Z,41.12
2018-02-12T10:19:35.487Z,40.85
2018-02-12T10:21:28.304Z,40.73
2018-02-12T10:22:28.209Z,40.73
2018-02-12T10:24:20.987Z,40.83
2018-02-12T10:25:20.928Z,40.93
2018-02-12T10:27:13.729Z,41.41
2018-02-12T10:28:13.645Z,41.41
2018-02-12T10:30:06.419Z,40.66
2018-02-12T10:31:06.364Z,40.18
2018-02-12T10:32:59.185Z,38.29
2018-02-12T10:33:59.081Z,37.83
2018-02-12T10:35:51.857Z,35.93
2018-02-12T10:36:51.801Z,35.86
2018-02-12T10:38:44.607Z,32.65
2018-02-12T10:39:44.525Z,30.63
2018-02-12T10:41:37.301Z,29.94
2018-02-12T10:42:37.247Z,32.21
2018-02-12T10:44:30.055Z,35.35
2018-02-12T10:45:29.972Z,36.10
2018-02-12T10:47:22.747Z,37.14
2018-02-12T10:48:22.692Z,37.62
2018-02-12T10:50:15.498Z,37.81
2018-02-12T10:51:15.414Z,37.62
2018-02-12T10:53:08.188Z,37.91
2018-02-12T10:54:08.134Z,38.56
2018-02-12T10:56:00.938Z,39.03
2018-02-12T10:57:00.853Z,39.79
2018-02-12T10:58:53.630Z,38.84
2018-02-12T10:59:53.574Z,38.93
2018-02-12T11:01:46.396Z,39.89
2018-02-12T11:02:46.308Z,39.12
2018-02-12T11:04:39.070Z,39.12
2018-02-12T11:05:39.014Z,39.29
2018-02-12T11:07:31.818Z,39.87
2018-02-12T11:08:31.732Z,39.97
2018-02-12T11:10:24.509Z,40.35
2018-02-12T11:11:24.454Z,40.64
2018-02-12T11:13:17.261Z,40.35
2018-02-12T11:14:17.224Z,39.99
2018-02-12T11:16:09.951Z,39.89
2018-02-12T11:17:09.894Z,39.79
2018-02-12T11:19:02.700Z,39.61
2018-02-12T11:20:02.618Z,39.89
2018-02-12T11:21:55.387Z,39.58
2018-02-12T11:22:55.332Z,39.51
2018-02-12T11:24:48.154Z,39.97
2018-02-12T11:25:48.052Z,39.87
2018-02-12T11:27:40.825Z,40.25
2018-02-12T11:28:40.770Z,40.25
2018-02-12T11:30:33.577Z,39.87
2018-02-12T11:31:33.492Z,40.25
2018-02-12T11:33:26.266Z,40.35
2018-02-12T11:34:26.210Z,40.45
2018-02-12T11:36:19.014Z,40.55
2018-02-12T11:37:18.935Z,40.55
2018-02-12T11:39:11.702Z,40.91
2018-02-12T11:40:11.646Z,40.93
2018-02-12T11:42:04.450Z,41.10
2018-02-12T11:43:04.367Z,40.91
2018-02-12T11:44:57.138Z,40.91
2018-02-12T11:45:57.108Z,41.00
2018-02-12T11:47:49.887Z,41.20
2018-02-12T11:48:49.801Z,41.29
2018-02-12T11:50:42.573Z,41.00
2018-02-12T11:51:42.517Z,41.20
2018-02-12T11:53:35.320Z,41.00
2018-02-12T11:54:35.234Z,40.72
2018-02-12T11:56:28.009Z,41.10
2018-02-12T11:57:27.952Z,41.20
2018-02-12T11:59:20.774Z,41.22
2018-02-12T12:00:20.672Z,40.62
2018-02-12T12:02:13.445Z,40.93
2018-02-12T12:03:13.389Z,40.73
2018-02-12T12:05:06.193Z,39.97
2018-02-12T12:06:06.105Z,39.87
2018-02-12T12:07:58.879Z,39.97
2018-02-12T12:08:58.823Z,39.97
2018-02-12T12:10:51.630Z,40.45
2018-02-12T12:11:51.543Z,40.45
2018-02-12T12:13:44.316Z,40.52
2018-02-12T12:14:44.262Z,41.10
2018-02-12T12:16:37.079Z,41.00
2018-02-12T12:17:36.978Z,40.81
2018-02-12T12:19:29.752Z,41.10
2018-02-12T12:20:29.694Z,40.43
2018-02-12T12:22:22.496Z,40.45
2018-02-12T12:23:22.410Z,40.35
2018-02-12T12:25:15.185Z,40.06
2018-02-12T12:26:15.129Z,40.16
2018-02-12T12:28:07.933Z,40.06
2018-02-12T12:29:07.846Z,40.06
2018-02-12T12:31:00.621Z,40.25
2018-02-12T12:32:00.566Z,39.97
2018-02-12T12:33:53.367Z,39.85
2018-02-12T12:34:53.282Z,40.45
2018-02-12T12:36:46.054Z,40.43
2018-02-12T12:37:46.001Z,40.45
2018-02-12T12:39:38.801Z,40.91
2018-02-12T12:40:38.714Z,41.00
2018-02-12T12:42:31.488Z,41.29
2018-02-12T12:43:31.432Z,41.29
2018-02-12T12:45:24.240Z,41.20
2018-02-12T12:46:24.149Z,41.49
2018-02-12T12:48:16.922Z,41.39
2018-02-12T12:49:16.866Z,41.49
2018-02-12T12:51:09.687Z,41.56
2018-02-12T12:52:09.583Z,41.27
2018-02-12T12:54:02.355Z,41.56
2018-02-12T12:55:02.300Z,41.46
2018-02-12T12:56:55.100Z,41.58
2018-02-12T12:57:55.019Z,41.46
2018-02-12T12:59:47.788Z,41.56
2018-02-12T13:00:47.731Z,41.37
2018-02-12T13:02:40.535Z,41.56
2018-02-12T13:03:40.447Z,41.46
2018-02-12T13:05:33.222Z,41.56
2018-02-12T13:06:33.168Z,41.75
2018-02-12T13:08:25.970Z,41.37
2018-02-12T13:09:25.883Z,41.37
2018-02-12T13:11:18.659Z,41.46
2018-02-12T13:12:18.601Z,41.37
2018-02-12T13:14:11.405Z,41.27
2018-02-12T13:15:11.320Z,41.08
2018-02-12T13:17:04.095Z,41.27
2018-02-12T13:18:04.038Z,41.27
2018-02-12T13:19:56.839Z,41.37
2018-02-12T13:20:56.753Z,41.37
2018-02-12T13:22:49.528Z,41.56
2018-02-12T13:23:49.473Z,41.56
2018-02-12T13:25:42.276Z,41.56
2018-02-12T13:26:42.190Z,41.56
2018-02-12T13:28:34.964Z,41.46
2018-02-12T13:29:34.912Z,41.17
2018-02-12T13:31:27.712Z,41.56
2018-02-12T13:32:27.627Z,41.66
2018-02-12T13:34:20.401Z,41.46
2018-02-12T13:35:20.345Z,41.56
2018-02-12T13:37:13.148Z,41.37
2018-02-12T13:38:13.064Z,41.08
2018-02-12T13:40:05.836Z,41.27
2018-02-12T13:41:05.780Z,41.08
2018-02-12T13:42:58.582Z,41.17
2018-02-12T13:43:58.499Z,41.08
2018-02-12T13:45:51.270Z,41.17
2018-02-12T13:46:51.213Z,41.17
2018-02-12T13:48:44.017Z,41.17
2018-02-12T13:49:43.929Z,41.56
2018-02-12T13:51:36.704Z,41.27
2018-02-12T13:52:36.649Z,41.56
2018-02-12T13:54:29.450Z,41.75
2018-02-12T13:55:29.364Z,41.46
2018-02-12T13:57:22.140Z,41.46
2018-02-12T13:58:22.080Z,41.66
2018-02-12T14:00:14.881Z,41.46
2018-02-12T14:01:14.794Z,41.56
2018-02-12T14:03:07.571Z,41.46
2018-02-12T14:04:07.513Z,41.46
2018-02-12T14:06:00.313Z,41.37
2018-02-12T14:07:00.227Z,41.46
2018-02-12T14:08:52.999Z,41.46
2018-02-12T14:09:52.943Z,41.56
2018-02-12T14:11:45.744Z,41.46
2018-02-12T14:12:45.659Z,41.56
2018-02-12T14:14:38.433Z,41.56
2018-02-12T14:15:38.380Z,41.17
2018-02-12T14:17:31.182Z,41.08
2018-02-12T14:18:31.099Z,40.79
2018-02-12T14:20:23.868Z,40.99
2018-02-12T14:21:23.812Z,40.99
2018-02-12T14:23:16.632Z,41.08
2018-02-12T14:24:16.529Z,41.08
2018-02-12T14:26:09.304Z,41.56
2018-02-12T14:27:09.246Z,41.37
2018-02-12T14:29:02.049Z,41.66
2018-02-12T14:30:01.962Z,41.56
2018-02-12T14:31:54.736Z,41.46
2018-02-12T14:32:54.682Z,41.46
2018-02-12T14:34:47.482Z,41.46
2018-02-12T14:35:47.396Z,41.56
2018-02-12T14:37:40.172Z,41.63
2018-02-12T14:38:40.116Z,41.44
2018-02-12T14:40:32.919Z,41.75
2018-02-12T14:41:32.832Z,41.44
2018-02-12T14:43:25.603Z,41.44
2018-02-12T14:44:25.547Z,41.54
2018-02-12T14:46:18.369Z,41.44
2018-02-12T14:47:18.267Z,41.56
2018-02-12T14:49:11.040Z,41.44
2018-02-12T14:50:10.982Z,41.44
2018-02-12T14:52:03.789Z,41.83
2018-02-12T14:53:03.702Z,41.63
2018-02-12T14:54:56.476Z,41.63
2018-02-12T14:55:56.423Z,41.73
2018-02-12T14:57:49.226Z,41.63
2018-02-12T14:58:49.137Z,41.83
2018-02-12T15:00:41.914Z,41.54
2018-02-12T15:01:41.853Z,41.54
2018-02-12T15:03:34.659Z,41.54
2018-02-12T15:04:34.572Z,41.54
2018-02-12T15:06:27.344Z,41.66
2018-02-12T15:07:27.287Z,41.75
2018-02-12T15:09:20.091Z,41.56
2018-02-12T15:10:20.005Z,41.54
2018-02-12T15:12:12.775Z,41.44
2018-02-12T15:13:12.719Z,41.46
2018-02-12T15:15:05.521Z,41.27
2018-02-12T15:16:05.435Z,41.27
2018-02-12T15:17:58.206Z,41.27
2018-02-12T15:18:58.152Z,41.35
2018-02-12T15:20:50.971Z,41.35
2018-02-12T15:21:50.865Z,41.25
2018-02-12T15:23:43.639Z,41.27
2018-02-12T15:24:43.580Z,41.25
2018-02-12T15:26:36.384Z,41.44
2018-02-12T15:27:36.297Z,41.44
2018-02-12T15:29:29.070Z,41.56
2018-02-12T15:30:29.013Z,41.63
2018-02-12T15:32:21.814Z,41.35
2018-02-12T15:33:21.728Z,41.08
2018-02-12T15:35:14.499Z,41.06
2018-02-12T15:36:14.442Z,41.25
2018-02-12T15:38:07.245Z,41.25
2018-02-12T15:39:07.158Z,41.37
2018-02-12T15:40:59.932Z,41.63
2018-02-12T15:41:59.875Z,41.54
2018-02-12T15:43:52.696Z,41.54
2018-02-12T15:44:52.601Z,41.44
2018-02-12T15:46:45.366Z,41.54
2018-02-12T15:47:45.310Z,41.44
2018-02-12T15:49:38.112Z,41.44
2018-02-12T15:50:38.026Z,41.44
2018-02-12T15:52:30.798Z,41.44
2018-02-12T15:53:30.742Z,41.73
2018-02-12T15:55:23.543Z,41.63
2018-02-12T15:56:23.457Z,41.63
2018-02-12T15:58:16.229Z,41.73
2018-02-12T15:59:16.171Z,41.44
2018-02-12T16:01:08.980Z,41.73
2018-02-12T16:02:08.890Z,41.63
2018-02-12T16:04:01.661Z,41.73
2018-02-12T16:05:01.607Z,41.54
2018-02-12T16:06:54.408Z,41.35
2018-02-12T16:07:54.320Z,41.44
2018-02-12T16:09:47.093Z,41.54
2018-02-12T16:10:47.044Z,41.35
2018-02-12T16:12:39.836Z,41.44
2018-02-12T16:13:39.750Z,41.44
2018-02-12T16:15:32.522Z,41.54
2018-02-12T16:16:32.464Z,41.63
2018-02-12T16:18:25.269Z,41.35
2018-02-12T16:19:25.182Z,41.25
2018-02-12T16:21:17.953Z,41.44
2018-02-12T16:22:17.898Z,41.44
2018-02-12T16:24:10.699Z,41.73
2018-02-12T16:25:10.612Z,41.44
2018-02-12T16:27:03.384Z,41.35
2018-02-12T16:28:03.327Z,41.16
2018-02-12T16:29:56.129Z,41.06
2018-02-12T16:30:56.042Z,40.96
2018-02-12T16:32:48.816Z,40.99
2018-02-12T16:33:48.761Z,40.89
2018-02-12T16:35:41.564Z,40.99
2018-02-12T16:36:41.478Z,40.79
2018-02-12T16:38:34.251Z,40.89
2018-02-12T16:39:34.193Z,40.33
2018-02-12T16:41:26.997Z,40.43
2018-02-12T16:42:26.912Z,40.52
2018-02-12T16:44:19.685Z,40.43
2018-02-12T16:45:19.632Z,40.43
2018-02-12T16:47:12.445Z,40.05
2018-02-12T16:48:12.345Z,39.97
2018-02-12T16:50:05.118Z,40.16
2018-02-12T16:51:05.060Z,40.16
2018-02-12T16:52:57.864Z,39.78
2018-02-12T16:53:57.780Z,40.06
2018-02-12T16:55:50.553Z,39.68
2018-02-12T16:56:50.496Z,39.79
2018-02-12T16:58:43.303Z,39.79
2018-02-12T16:59:43.218Z,39.70
2018-02-12T17:01:35.993Z,39.51
2018-02-12T17:02:35.937Z,39.61
2018-02-12T17:04:28.743Z,39.61
2018-02-12T17:05:28.657Z,39.70
2018-02-12T17:07:21.431Z,39.12
2018-02-12T17:08:21.374Z,39.31
2018-02-12T17:10:14.179Z,39.61
2018-02-12T17:11:14.094Z,39.51
2018-02-12T17:13:06.868Z,39.04
2018-02-12T17:14:06.812Z,39.14
2018-02-12T17:15:59.617Z,39.53
2018-02-12T17:16:59.531Z,39.24
2018-02-12T17:18:52.304Z,39.33
2018-02-12T17:19:52.249Z,39.24
2018-02-12T17:21:45.055Z,39.24
2018-02-12T17:22:44.970Z,39.24
2018-02-12T17:24:37.744Z,39.33
2018-02-12T17:25:37.691Z,39.24
2018-02-12T17:27:30.497Z,38.95
2018-02-12T17:28:30.409Z,38.95
2018-02-12T17:30:23.193Z,38.78
2018-02-12T17:31:23.130Z,38.59
2018-02-12T17:33:15.934Z,38.78
2018-02-12T17:34:15.854Z,38.49
2018-02-12T17:36:08.626Z,38.68
2018-02-12T17:37:08.570Z,38.68
2018-02-12T17:39:01.382Z,38.78
2018-02-12T17:40:01.305Z,38.68
2018-02-12T17:41:54.076Z,38.87
2018-02-12T17:42:54.022Z,38.78
2018-02-12T17:44:46.826Z,38.29
2018-02-12T17:45:46.741Z,38.29
2018-02-12T17:47:39.556Z,38.49
2018-02-12T17:48:39.462Z,38.41
2018-02-12T17:50:32.269Z,38.59
2018-02-12T17:51:32.185Z,38.51
2018-02-12T17:53:24.961Z,38.60
2018-02-12T17:54:24.907Z,38.22
2018-02-12T17:56:17.715Z,38.60
2018-02-12T17:57:17.630Z,38.51
2018-02-12T17:59:10.407Z,38.51
2018-02-12T18:00:10.352Z,38.60
2018-02-12T18:02:03.158Z,38.31
2018-02-12T18:03:03.073Z,38.31
2018-02-12T18:04:55.850Z,38.22
2018-02-12T18:05:55.796Z,38.31
2018-02-12T18:07:48.605Z,38.43
2018-02-12T18:08:48.526Z,38.22
2018-02-12T18:10:41.297Z,38.12
2018-02-12T18:11:41.242Z,38.04
2018-02-12T18:13:34.054Z,38.14
2018-02-12T18:14:33.965Z,38.14
2018-02-12T18:16:26.742Z,38.14
2018-02-12T18:17:26.687Z,38.04
2018-02-12T18:19:19.494Z,38.14
2018-02-12T18:20:19.409Z,38.24
2018-02-12T18:22:12.186Z,38.04
2018-02-12T18:23:12.134Z,37.95
2018-02-12T18:25:04.943Z,37.76
2018-02-12T18:26:04.860Z,37.66
2018-02-12T18:27:57.636Z,37.66
2018-02-12T18:28:57.583Z,37.46
2018-02-12T18:30:50.389Z,37.46
2018-02-12T18:31:50.303Z,37.66